Orbital elements of FENGYUN 1C DEB
| Launched | 9 May 1999 |
| Flight ended | – |
| Launch site | Taiyuan Space Center, PRC |
| Owner | People's Republic of China |
| NORAD ID | 30157 |
| Date fetched |
Epoch osculation |
Inc. [°] |
Ecc. | RA asc node [hr] |
Arg Peri. [°] |
Mean anom [°] |
Mean motion [rev/day] |
Abs. mag |
| Date fetched |
Epoch osculation |
Inc. [°] |
Ecc. | RA asc node [hr] |
Arg Peri. [°] |
Mean anom [°] |
Mean motion [rev/day] |
Abs. mag |
| 2026 May 05 17:57 | 2026 May 05 06:11:33 | 98.7131 | 0.00376 | 15.4172 | 123.8381 | 265.6598 | 14.47303 | – |
| 2026 May 04 17:57 | 2026 Apr 30 06:41:23 | 98.7121 | 0.00378 | 15.0755 | 137.8312 | 265.6598 | 14.47303 | – |
| 2026 May 03 17:57 | 2026 Apr 30 06:41:23 | 98.7121 | 0.00378 | 15.0755 | 137.8312 | 265.6598 | 14.47303 | – |
| 2026 May 02 17:57 | 2026 Apr 30 06:41:23 | 98.7121 | 0.00378 | 15.0755 | 137.8312 | 265.6598 | 14.47303 | – |
| 2026 May 01 17:56 | 2026 Apr 30 06:41:23 | 98.7121 | 0.00378 | 15.0755 | 137.8312 | 265.6598 | 14.47303 | – |
| 2026 Apr 30 17:56 | 2026 Apr 30 06:41:23 | 98.7121 | 0.00378 | 15.0755 | 137.8312 | 265.6598 | 14.47303 | – |
| 2026 Apr 29 17:57 | 2026 Apr 24 06:21:27 | 98.7122 | 0.00378 | 14.6630 | 155.0242 | 265.6598 | 14.47303 | – |
| 2026 Apr 28 17:56 | 2026 Apr 24 06:21:27 | 98.7122 | 0.00378 | 14.6630 | 155.0242 | 265.6598 | 14.47303 | – |
| 2026 Apr 27 17:58 | 2026 Apr 24 06:21:27 | 98.7122 | 0.00378 | 14.6630 | 155.0242 | 265.6598 | 14.47303 | – |
| 2026 Apr 26 17:58 | 2026 Apr 24 06:21:27 | 98.7122 | 0.00378 | 14.6630 | 155.0242 | 265.6598 | 14.47303 | – |
| 2026 Apr 25 17:58 | 2026 Apr 24 06:21:27 | 98.7122 | 0.00378 | 14.6630 | 155.0242 | 265.6598 | 14.47303 | – |
| 2026 Apr 24 17:59 | 2026 Apr 24 06:21:27 | 98.7122 | 0.00378 | 14.6630 | 155.0242 | 265.6598 | 14.47303 | – |
| 2026 Apr 23 17:57 | 2026 Apr 18 05:59:37 | 98.7128 | 0.00377 | 14.2503 | 171.9772 | 265.6598 | 14.47303 | – |
| 2026 Apr 22 17:57 | 2026 Apr 18 05:59:37 | 98.7128 | 0.00377 | 14.2503 | 171.9772 | 265.6598 | 14.47303 | – |
| 2026 Apr 21 17:57 | 2026 Apr 18 05:59:37 | 98.7128 | 0.00377 | 14.2503 | 171.9772 | 265.6598 | 14.47303 | – |
| 2026 Apr 20 17:57 | 2026 Apr 18 05:59:37 | 98.7128 | 0.00377 | 14.2503 | 171.9772 | 265.6598 | 14.47303 | – |
| 2026 Apr 19 17:58 | 2026 Apr 18 05:59:37 | 98.7128 | 0.00377 | 14.2503 | 171.9772 | 265.6598 | 14.47303 | – |
| 2026 Apr 18 17:56 | 2026 Apr 12 05:37:13 | 98.7106 | 0.00373 | 13.8376 | 189.1876 | 265.6598 | 14.47303 | – |
| 2026 Apr 16 17:57 | 2026 Apr 12 05:37:13 | 98.7106 | 0.00373 | 13.8376 | 189.1876 | 265.6598 | 14.47303 | – |
| 2026 Apr 14 17:57 | 2026 Apr 12 05:37:13 | 98.7106 | 0.00373 | 13.8376 | 189.1876 | 265.6598 | 14.47303 | – |
| 2026 Apr 13 17:57 | 2026 Apr 12 05:37:13 | 98.7106 | 0.00373 | 13.8376 | 189.1876 | 265.6598 | 14.47303 | – |
| 2026 Apr 12 17:57 | 2026 Apr 07 06:07:38 | 98.7108 | 0.00369 | 13.4961 | 203.5737 | 265.6598 | 14.47303 | – |
| 2026 Apr 11 17:57 | 2026 Apr 07 06:07:38 | 98.7108 | 0.00369 | 13.4961 | 203.5737 | 265.6598 | 14.47303 | – |
| 2026 Apr 10 17:58 | 2026 Apr 07 06:07:38 | 98.7108 | 0.00369 | 13.4961 | 203.5737 | 265.6598 | 14.47303 | – |
| 2026 Apr 09 18:01 | 2026 Apr 07 06:07:38 | 98.7108 | 0.00369 | 13.4961 | 203.5737 | 265.6598 | 14.47303 | – |
| 2026 Apr 08 17:57 | 2026 Apr 07 06:07:38 | 98.7108 | 0.00369 | 13.4961 | 203.5737 | 265.6598 | 14.47303 | – |